Time;durP1;ratioP1;P1;durP2;ratioP2;P2;SDS_P1;SDS_P2;PMS_P1;PMS_P2;Temp;Humidity;BMP_temperature;BMP_pressure;BME280_temperature;BME280_humidity;BME280_pressure;Samples;Min_cycle;Max_cycle;Signal;HPM_P1;HPM_P2
2022/04/22 00:01:24;;;;;;;11.25;6.88;;;10.30;99.90;;;;;;5065732;28;20036;-75
2022/04/22 00:03:50;;;;;;;11.65;8.05;;;10.30;99.90;;;;;;5068174;28;20063;-75
2022/04/22 00:06:16;;;;;;;11.93;8.00;;;10.30;99.90;;;;;;5065435;28;20036;-75
2022/04/22 00:08:41;;;;;;;10.48;7.72;;;10.20;99.90;;;;;;5060290;28;20470;-75
2022/04/22 00:13:52;;;;;;;11.32;7.60;;;10.10;99.90;;;;;;5064967;28;20040;-75
2022/04/22 00:16:17;;;;;;;12.63;7.85;;;10.00;99.90;;;;;;5066334;28;20047;-75
2022/04/22 00:18:43;;;;;;;13.13;8.23;;;10.10;99.90;;;;;;5069723;28;20033;-75
2022/04/22 00:21:09;;;;;;;15.65;8.65;;;10.10;99.90;;;;;;5067588;28;20052;-75
2022/04/22 00:23:34;;;;;;;13.40;7.80;;;10.10;99.90;;;;;;5070667;28;20059;-75
2022/04/22 00:26:00;;;;;;;11.85;7.95;;;10.10;99.90;;;;;;5058713;28;20096;-75
2022/04/22 00:28:26;;;;;;;13.15;8.45;;;10.00;99.90;;;;;;5059808;28;20108;-75
2022/04/22 00:30:51;;;;;;;11.45;8.07;;;10.00;99.90;;;;;;5053038;28;20429;-75
2022/04/22 00:33:17;;;;;;;12.50;8.02;;;10.00;99.90;;;;;;5064798;28;20199;-75
2022/04/22 00:35:44;;;;;;;13.52;8.55;;;9.90;99.90;;;;;;5064978;28;20084;-75
2022/04/22 00:38:10;;;;;;;11.55;8.10;;;9.80;99.90;;;;;;5068349;28;20028;-75
2022/04/22 00:40:36;;;;;;;11.15;8.15;;;9.80;99.90;;;;;;5070007;28;20451;-75
2022/04/22 00:43:19;;;;;;;14.13;8.02;;;9.80;99.90;;;;;;5052722;28;20538;-75
2022/04/22 00:45:45;;;;;;;12.20;7.82;;;9.80;99.90;;;;;;5069893;28;20103;-75
2022/04/22 00:48:11;;;;;;;12.70;8.25;;;9.70;99.90;;;;;;5059772;28;20378;-75
2022/04/22 00:50:38;;;;;;;16.67;8.70;;;9.70;99.90;;;;;;5064379;28;20040;-75
2022/04/22 00:53:05;;;;;;;14.27;8.55;;;9.60;99.90;;;;;;5069469;28;20037;-75
2022/04/22 00:55:31;;;;;;;13.05;8.60;;;9.50;99.90;;;;;;5061386;28;20089;-75
2022/04/22 00:57:58;;;;;;;12.00;8.27;;;9.40;99.90;;;;;;5068591;28;20068;-75
2022/04/22 01:00:24;;;;;;;12.18;8.55;;;9.40;99.90;;;;;;5069093;28;20033;-75
2022/04/22 01:02:50;;;;;;;13.52;8.65;;;9.30;99.90;;;;;;5065731;28;20047;-75
2022/04/22 01:10:44;;;;;;;12.52;9.00;;;9.20;99.90;;;;;;5063576;28;20052;-75
2022/04/22 01:13:11;;;;;;;14.95;9.48;;;9.20;99.90;;;;;;5064809;28;20041;-75
2022/04/22 01:15:36;;;;;;;16.92;10.27;;;9.20;99.90;;;;;;5069400;28;20071;-75
2022/04/22 01:18:03;;;;;;;14.02;9.82;;;9.10;99.90;;;;;;5069205;28;20450;-75
2022/04/22 01:20:28;;;;;;;16.42;9.55;;;9.00;99.90;;;;;;5061054;28;20427;-75
2022/04/22 01:22:54;;;;;;;13.07;9.68;;;9.00;99.90;;;;;;5057443;28;20086;-75
2022/04/22 01:25:20;;;;;;;16.13;9.68;;;9.00;99.90;;;;;;5057799;28;20076;-75
2022/04/22 01:27:50;;;;;;;18.08;9.20;;;8.90;99.90;;;;;;5072298;28;20078;-75
2022/04/22 01:30:23;;;;;;;14.23;9.68;;;8.90;99.90;;;;;;5072487;28;20056;-75
2022/04/22 01:32:50;;;;;;;17.83;10.27;;;8.80;99.90;;;;;;5068801;28;20040;-75
2022/04/22 01:35:19;;;;;;;13.75;9.70;;;8.80;99.90;;;;;;5070845;28;20473;-75
2022/04/22 01:37:45;;;;;;;13.10;10.32;;;8.70;99.90;;;;;;5060948;28;20044;-75
2022/04/22 01:40:12;;;;;;;13.68;9.88;;;8.70;99.90;;;;;;5066802;28;20045;-75
2022/04/22 01:42:38;;;;;;;15.68;11.00;;;8.60;99.90;;;;;;5061859;28;20467;-75
2022/04/22 01:45:05;;;;;;;13.88;9.93;;;8.60;99.90;;;;;;5068088;28;20052;-75
2022/04/22 01:47:31;;;;;;;18.50;11.55;;;8.50;99.90;;;;;;5066065;28;20048;-75
2022/04/22 01:49:57;;;;;;;14.40;10.30;;;8.50;99.90;;;;;;5073510;28;20040;-75
2022/04/22 01:52:23;;;;;;;14.50;10.15;;;8.50;99.90;;;;;;5069822;28;20041;-75
2022/04/22 01:54:54;;;;;;;14.27;10.25;;;8.40;99.90;;;;;;5058037;28;20037;-75
2022/04/22 01:57:20;;;;;;;13.55;10.20;;;8.40;99.90;;;;;;5058746;28;20032;-75
2022/04/22 01:59:48;;;;;;;13.77;9.88;;;8.30;99.90;;;;;;5069152;28;20465;-75
2022/04/22 02:02:14;;;;;;;13.00;9.45;;;8.30;99.90;;;;;;5070564;28;20093;-75
2022/04/22 02:04:40;;;;;;;11.93;9.73;;;8.30;99.90;;;;;;5070691;28;20048;-75
2022/04/22 02:07:06;;;;;;;11.45;9.68;;;8.20;99.90;;;;;;5069273;28;20347;-75
2022/04/22 02:09:32;;;;;;;10.07;9.02;;;8.20;99.90;;;;;;5071090;28;20045;-75
2022/04/22 02:11:58;;;;;;;14.85;9.00;;;8.30;99.90;;;;;;5066947;28;20512;-75
2022/04/22 02:14:24;;;;;;;12.27;8.80;;;8.20;99.90;;;;;;5059074;28;20123;-75
2022/04/22 02:16:50;;;;;;;14.63;9.43;;;8.20;99.90;;;;;;5068106;28;20571;-75
2022/04/22 02:19:16;;;;;;;13.30;9.15;;;8.20;99.90;;;;;;5067533;28;20028;-75
2022/04/22 02:21:41;;;;;;;10.38;9.15;;;8.20;99.90;;;;;;5072321;22;20840;-74
2022/04/22 02:24:07;;;;;;;10.32;8.60;;;8.10;99.90;;;;;;5071417;28;20056;-74
2022/04/22 02:28:31;;;;;;;12.57;8.57;;;8.10;99.90;;;;;;5068218;28;20040;-74
2022/04/22 02:29:19;;;;;;;10.43;8.43;;;8.10;99.90;;;;;;5066405;28;20040;-74
2022/04/22 02:31:46;;;;;;;10.52;8.13;;;8.00;99.90;;;;;;5064948;28;20525;-74
2022/04/22 02:34:11;;;;;;;10.13;8.27;;;8.10;99.90;;;;;;5068776;28;20036;-74
2022/04/22 02:36:37;;;;;;;10.40;8.88;;;8.00;99.90;;;;;;5065212;28;20072;-74
2022/04/22 02:39:03;;;;;;;11.02;7.75;;;8.00;99.90;;;;;;5069390;28;20167;-74
2022/04/22 02:46:57;;;;;;;12.63;7.53;;;8.00;99.90;;;;;;5061989;28;20043;-75
2022/04/22 02:49:23;;;;;;;10.60;7.20;;;7.90;99.90;;;;;;5050584;28;20119;-74
2022/04/22 02:51:48;;;;;;;11.73;7.53;;;7.90;99.90;;;;;;5067515;28;20046;-75
2022/04/22 02:54:14;;;;;;;8.18;7.18;;;7.90;99.90;;;;;;5067628;28;20562;-75
2022/04/22 02:56:39;;;;;;;10.85;7.88;;;7.90;99.90;;;;;;5068531;28;20557;-75
2022/04/22 02:59:06;;;;;;;12.05;7.78;;;7.90;99.90;;;;;;5072416;28;20045;-75
2022/04/22 03:01:33;;;;;;;9.45;6.85;;;7.80;99.90;;;;;;5063074;28;20493;-75
2022/04/22 03:03:59;;;;;;;11.35;6.95;;;7.80;99.90;;;;;;5057899;28;20067;-75
2022/04/22 03:06:26;;;;;;;9.52;7.38;;;7.70;99.90;;;;;;5054921;28;20612;-75
2022/04/22 03:08:52;;;;;;;8.57;6.22;;;7.70;99.90;;;;;;5053542;28;20041;-75
2022/04/22 03:11:20;;;;;;;8.18;6.32;;;7.70;99.90;;;;;;5066267;28;20047;-75
2022/04/22 03:13:45;;;;;;;9.73;6.90;;;7.80;99.90;;;;;;5067609;28;20037;-75
2022/04/22 03:16:11;;;;;;;11.40;6.35;;;7.70;99.90;;;;;;5047301;28;20752;-74
2022/04/22 03:18:37;;;;;;;8.80;6.90;;;7.70;99.90;;;;;;5068627;28;20064;-75
2022/04/22 03:21:02;;;;;;;8.77;6.60;;;7.70;99.90;;;;;;5068510;28;20036;-75
2022/04/22 03:23:28;;;;;;;8.15;6.50;;;7.60;99.90;;;;;;5064799;28;20045;-75
2022/04/22 03:25:56;;;;;;;9.07;6.50;;;7.50;99.90;;;;;;5064110;28;20398;-75
2022/04/22 03:28:23;;;;;;;6.90;5.78;;;7.50;99.90;;;;;;5056529;28;20036;-75
2022/04/22 03:30:49;;;;;;;8.57;6.25;;;7.50;99.90;;;;;;5063197;28;20080;-75
2022/04/22 03:33:14;;;;;;;11.05;6.38;;;7.40;99.90;;;;;;5069507;28;20060;-75
2022/04/22 03:35:40;;;;;;;7.88;5.88;;;7.50;99.90;;;;;;5067456;28;20091;-75
2022/04/22 03:38:06;;;;;;;9.20;6.90;;;7.40;99.90;;;;;;5065619;28;20090;-75
2022/04/22 03:40:32;;;;;;;10.77;6.50;;;7.40;99.90;;;;;;5058852;28;20041;-75
2022/04/22 03:42:57;;;;;;;9.95;6.25;;;7.40;99.90;;;;;;5065818;28;20378;-75
2022/04/22 03:45:23;;;;;;;7.03;5.72;;;7.50;99.90;;;;;;5069919;28;20486;-75
2022/04/22 03:47:48;;;;;;;8.65;6.13;;;7.50;99.90;;;;;;5066120;28;20064;-75
2022/04/22 03:50:14;;;;;;;10.45;6.35;;;7.60;99.90;;;;;;5066531;28;20482;-74
2022/04/22 03:52:40;;;;;;;10.10;6.13;;;7.60;99.90;;;;;;5069005;28;20032;-74
2022/04/22 03:55:06;;;;;;;8.40;6.28;;;7.50;99.90;;;;;;5069418;28;20048;-75
2022/04/22 04:00:16;;;;;;;8.75;6.75;;;7.60;99.90;;;;;;5060685;28;20471;-75
2022/04/22 04:02:42;;;;;;;9.60;6.50;;;7.50;99.90;;;;;;5068011;28;20040;-74
2022/04/22 04:05:08;;;;;;;10.05;5.53;;;7.60;99.90;;;;;;5067500;28;20051;-75
2022/04/22 04:07:34;;;;;;;9.43;6.30;;;7.60;99.90;;;;;;5050041;28;20043;-75
2022/04/22 04:18:12;;;;;;;8.18;5.90;;;7.50;99.90;;;;;;5060157;28;20045;-75
2022/04/22 04:23:22;;;;;;;8.80;5.90;;;7.40;99.90;;;;;;5058160;28;20079;-75
2022/04/22 04:25:49;;;;;;;7.97;5.68;;;7.40;99.90;;;;;;5067729;28;20355;-75
2022/04/22 04:28:17;;;;;;;10.70;5.75;;;7.40;99.90;;;;;;5065292;28;20048;-75
2022/04/22 04:30:44;;;;;;;7.22;5.35;;;7.50;99.90;;;;;;5062538;28;20486;-75
2022/04/22 04:33:10;;;;;;;9.77;5.93;;;7.50;99.90;;;;;;5064381;28;20139;-75
2022/04/22 04:35:37;;;;;;;9.57;6.10;;;7.40;99.90;;;;;;5045272;28;20056;-75
2022/04/22 04:38:04;;;;;;;7.30;6.13;;;7.40;99.90;;;;;;5060709;28;20124;-75
2022/04/22 04:40:30;;;;;;;7.07;5.20;;;7.40;99.90;;;;;;5067424;28;20028;-75
2022/04/22 04:42:55;;;;;;;6.47;5.07;;;7.50;99.90;;;;;;5062926;28;20485;-75
2022/04/22 04:45:21;;;;;;;7.93;5.53;;;7.50;99.90;;;;;;5052220;28;20053;-75
2022/04/22 04:47:47;;;;;;;9.00;5.88;;;7.60;99.90;;;;;;5061604;28;21593;-75
2022/04/22 04:50:13;;;;;;;9.57;5.75;;;7.60;99.90;;;;;;5063334;28;20502;-75
2022/04/22 04:52:40;;;;;;;8.23;5.22;;;7.50;99.90;;;;;;5046120;28;20597;-75
2022/04/22 04:55:09;;;;;;;10.18;5.68;;;7.60;99.90;;;;;;5046229;28;20150;-75
2022/04/22 04:57:35;;;;;;;8.02;4.85;;;7.60;99.90;;;;;;5067136;28;20036;-75
2022/04/22 05:00:08;;;;;;;5.85;5.10;;;7.60;99.90;;;;;;5044502;28;20040;-75
2022/04/22 05:02:34;;;;;;;8.15;5.57;;;7.60;99.90;;;;;;5067059;28;20351;-75
2022/04/22 05:05:01;;;;;;;7.78;5.90;;;7.50;99.90;;;;;;5070280;28;20086;-75
2022/04/22 05:07:26;;;;;;;8.00;5.53;;;7.70;99.90;;;;;;5040072;28;20175;-75
2022/04/22 05:09:52;;;;;;;7.07;4.85;;;7.70;99.90;;;;;;5070183;28;20120;-75
2022/04/22 05:12:18;;;;;;;7.63;5.50;;;7.80;99.90;;;;;;5068610;28;20428;-75
2022/04/22 05:14:46;;;;;;;8.73;5.60;;;7.70;99.90;;;;;;5062755;28;20111;-75
2022/04/22 05:17:12;;;;;;;7.95;5.60;;;7.70;99.90;;;;;;5060927;28;20052;-75
2022/04/22 05:19:38;;;;;;;7.43;5.50;;;7.80;99.90;;;;;;5069143;28;20047;-75
2022/04/22 05:22:04;;;;;;;9.82;5.35;;;7.70;99.90;;;;;;5072694;28;20417;-75
2022/04/22 05:24:31;;;;;;;11.57;5.45;;;7.90;99.90;;;;;;5068668;28;20075;-75
2022/04/22 05:26:57;;;;;;;10.65;5.93;;;7.90;99.90;;;;;;5069230;28;20046;-75
2022/04/22 05:34:51;;;;;;;8.45;5.70;;;8.00;99.90;;;;;;5063020;28;20045;-75
2022/04/22 05:37:16;;;;;;;8.40;5.72;;;8.20;99.90;;;;;;5063519;28;20055;-75
2022/04/22 05:39:43;;;;;;;7.65;5.72;;;8.10;99.90;;;;;;5070060;28;20064;-76
2022/04/22 05:42:09;;;;;;;9.25;5.47;;;8.30;99.90;;;;;;5069569;28;20044;-75
2022/04/22 05:44:35;;;;;;;6.70;4.95;;;9.00;99.90;;;;;;5044705;28;20068;-75
2022/04/22 05:47:01;;;;;;;6.60;5.38;;;10.40;99.90;;;;;;5067228;28;20519;-76
2022/04/22 05:49:27;;;;;;;6.13;4.60;;;11.50;99.90;;;;;;5051990;28;20040;-75
2022/04/22 05:51:54;;;;;;;7.85;5.25;;;12.80;99.90;;;;;;5069110;28;20118;-75
2022/04/22 05:54:20;;;;;;;8.48;5.03;;;13.10;99.90;;;;;;5070247;28;20044;-76
2022/04/22 05:56:45;;;;;;;6.45;4.40;;;13.90;99.90;;;;;;5071438;28;20055;-76
2022/04/22 05:59:11;;;;;;;5.63;4.03;;;14.60;99.00;;;;;;5071058;28;20043;-76
2022/04/22 06:01:37;;;;;;;5.20;3.92;;;15.10;96.20;;;;;;5061890;28;20080;-76
2022/04/22 06:04:02;;;;;;;6.85;4.40;;;15.20;96.40;;;;;;5062414;28;20122;-76
2022/04/22 06:06:28;;;;;;;5.45;4.20;;;15.80;95.40;;;;;;5069188;28;20434;-76
2022/04/22 06:11:37;;;;;;;4.97;3.70;;;16.40;93.60;;;;;;5069405;28;20044;-76
2022/04/22 06:14:03;;;;;;;6.35;3.90;;;16.90;91.70;;;;;;5069687;28;20048;-76
2022/04/22 06:16:28;;;;;;;4.95;3.80;;;17.30;90.80;;;;;;5062321;28;20037;-76
2022/04/22 06:18:54;;;;;;;5.53;3.70;;;17.30;90.40;;;;;;5067630;28;20068;-76
2022/04/22 06:21:20;;;;;;;6.63;3.80;;;17.10;89.00;;;;;;5061122;28;20056;-76
2022/04/22 06:23:45;;;;;;;5.43;3.90;;;17.70;88.10;;;;;;5050964;28;20071;-75
2022/04/22 06:26:11;;;;;;;4.60;3.67;;;17.40;83.60;;;;;;5052737;28;20222;-76
2022/04/22 06:28:36;;;;;;;4.18;3.40;;;17.90;84.20;;;;;;5064818;28;20086;-75
2022/04/22 06:31:02;;;;;;;5.55;3.80;;;17.90;84.30;;;;;;5064465;28;20035;-76
2022/04/22 06:33:28;;;;;;;5.30;3.45;;;17.50;76.70;;;;;;5055793;28;20056;-76
2022/04/22 06:35:54;;;;;;;8.00;3.55;;;18.00;78.00;;;;;;5067824;28;20485;-76
2022/04/22 06:38:20;;;;;;;7.15;3.60;;;18.10;80.50;;;;;;5067393;28;20067;-75
2022/04/22 06:46:16;;;;;;;5.65;3.65;;;19.30;75.50;;;;;;5070927;28;20049;-76
2022/04/22 06:48:43;;;;;;;4.60;3.05;;;19.70;73.00;;;;;;5063446;28;20104;-76
2022/04/22 06:51:09;;;;;;;5.78;3.13;;;19.60;73.70;;;;;;5064372;28;20033;-76
2022/04/22 06:53:36;;;;;;;3.97;2.83;;;20.10;70.90;;;;;;5062197;28;20578;-76
2022/04/22 06:56:02;;;;;;;4.38;2.70;;;19.60;69.60;;;;;;5069379;28;20059;-76
2022/04/22 06:58:31;;;;;;;4.15;3.00;;;19.80;66.10;;;;;;5053176;28;20078;-76
2022/04/22 07:00:57;;;;;;;5.10;3.10;;;20.00;69.20;;;;;;5060068;28;20036;-76
2022/04/22 07:03:23;;;;;;;5.47;2.65;;;20.20;67.60;;;;;;5069658;28;20045;-76
2022/04/22 07:05:51;;;;;;;6.45;3.30;;;20.50;67.50;;;;;;5064155;28;20120;-76
2022/04/22 07:08:18;;;;;;;4.95;3.00;;;20.10;66.80;;;;;;5055502;28;20044;-76
2022/04/22 07:10:49;;;;;;;4.25;2.60;;;20.10;66.30;;;;;;5068120;28;20042;-76
2022/04/22 07:13:16;;;;;;;2.93;2.60;;;20.30;66.50;;;;;;5061177;28;20068;-76
2022/04/22 07:15:45;;;;;;;4.60;2.78;;;20.50;66.80;;;;;;5065309;28;20055;-76
2022/04/22 07:18:11;;;;;;;4.22;2.58;;;20.60;65.20;;;;;;5070784;28;20091;-76
2022/04/22 07:20:37;;;;;;;3.13;2.80;;;20.80;63.90;;;;;;5065818;28;20051;-76
2022/04/22 07:23:03;;;;;;;6.05;3.25;;;20.30;64.10;;;;;;5063228;28;20059;-76
2022/04/22 07:25:29;;;;;;;3.28;2.42;;;20.30;62.60;;;;;;5068947;28;20047;-76
2022/04/22 07:27:55;;;;;;;3.80;2.90;;;20.20;60.20;;;;;;5068735;28;20028;-76
2022/04/22 07:30:22;;;;;;;5.93;2.60;;;20.30;65.00;;;;;;5045522;28;20146;-76
2022/04/22 07:32:49;;;;;;;6.05;2.85;;;20.90;63.00;;;;;;5061249;28;20045;-76
2022/04/22 07:35:20;;;;;;;4.07;2.42;;;19.40;64.90;;;;;;5060713;28;20059;-76
2022/04/22 07:37:48;;;;;;;2.97;2.30;;;19.80;63.90;;;;;;5045121;28;20583;-76
2022/04/22 07:40:15;;;;;;;2.72;2.35;;;20.40;63.50;;;;;;5051742;28;20072;-76
2022/04/22 07:46:46;;;;;;;6.90;2.42;;;20.70;62.50;;;;;;5068367;28;20032;-76
2022/04/22 07:48:17;;;;;;;3.67;2.47;;;20.40;59.20;;;;;;5069475;28;20094;-76
2022/04/22 07:50:45;;;;;;;2.97;2.25;;;19.70;62.50;;;;;;5049441;28;20478;-76
2022/04/22 07:53:11;;;;;;;3.83;2.60;;;18.50;63.50;;;;;;5069806;28;20044;-76
2022/04/22 07:55:36;;;;;;;2.88;2.47;;;17.20;67.40;;;;;;5056465;28;20086;-76
2022/04/22 07:58:02;;;;;;;3.72;2.67;;;16.50;70.50;;;;;;5067091;28;20041;-76
2022/04/22 08:00:27;;;;;;;3.80;2.88;;;15.80;72.40;;;;;;5065697;28;20035;-75
2022/04/22 08:02:53;;;;;;;4.78;2.70;;;14.80;73.70;;;;;;5058342;28;20044;-76
2022/04/22 08:05:18;;;;;;;3.83;2.40;;;15.00;77.90;;;;;;5035669;28;20040;-75
2022/04/22 08:07:44;;;;;;;4.90;2.80;;;15.10;78.70;;;;;;5069793;28;20068;-75
2022/04/22 08:10:10;;;;;;;4.18;2.65;;;14.80;78.70;;;;;;5067827;28;20496;-75
2022/04/22 08:12:35;;;;;;;4.10;2.40;;;14.60;81.20;;;;;;5066113;28;20029;-76
2022/04/22 08:15:03;;;;;;;2.85;2.50;;;13.80;81.30;;;;;;5067113;28;20044;-77
2022/04/22 08:17:36;;;;;;;4.80;2.80;;;14.30;84.60;;;;;;5059099;28;20037;-76
2022/04/22 08:20:05;;;;;;;5.28;2.85;;;14.20;85.60;;;;;;5068051;28;20478;-76
2022/04/22 08:22:31;;;;;;;3.72;2.70;;;14.30;86.60;;;;;;5083427;23;20060;-80
2022/04/22 08:24:57;;;;;;;3.70;2.55;;;14.50;87.50;;;;;;5088576;28;20550;-80
2022/04/22 08:27:26;;;;;;;5.00;2.95;;;14.70;86.50;;;;;;5089159;28;20036;-80
2022/04/22 08:29:52;;;;;;;4.47;2.53;;;14.80;86.10;;;;;;5085032;28;20082;-80
2022/04/22 08:32:18;;;;;;;5.57;2.60;;;14.60;86.90;;;;;;5064405;28;20036;-81
2022/04/22 08:34:44;;;;;;;3.80;2.58;;;14.80;87.20;;;;;;5076589;28;20398;-80
2022/04/22 08:37:10;;;;;;;4.80;2.45;;;14.80;89.50;;;;;;5088606;28;20036;-81
2022/04/22 08:39:36;;;;;;;2.40;2.20;;;14.70;88.50;;;;;;5087339;28;20386;-81
2022/04/22 08:42:03;;;;;;;4.40;2.97;;;14.20;84.30;;;;;;5071130;28;20068;-82
2022/04/22 08:44:30;;;;;;;6.63;2.60;;;13.70;87.90;;;;;;5090285;28;20055;-82
2022/04/22 08:49:58;;;;;;;4.28;2.50;;;14.00;90.60;;;;;;5084532;28;20471;-81
2022/04/22 08:52:31;;;;;;;4.25;2.42;;;14.30;90.00;;;;;;5058756;28;20707;-81
2022/04/22 08:54:58;;;;;;;3.45;2.70;;;14.10;88.60;;;;;;5078853;28;20041;-82
2022/04/22 08:57:24;;;;;;;3.97;2.47;;;13.70;90.20;;;;;;5088278;28;20040;-81
2022/04/22 08:59:49;;;;;;;4.15;2.33;;;13.40;90.10;;;;;;5084301;28;20475;-81
2022/04/22 09:02:16;;;;;;;4.40;3.15;;;13.50;90.80;;;;;;5089595;28;20130;-81
2022/04/22 09:04:42;;;;;;;4.88;2.83;;;13.80;91.50;;;;;;5063260;28;20051;-81
2022/04/22 09:07:13;;;;;;;3.22;2.47;;;14.30;91.20;;;;;;5083877;28;20413;-81
2022/04/22 09:09:44;;;;;;;4.20;2.30;;;14.10;91.10;;;;;;5087129;28;20040;-81
2022/04/22 09:12:13;;;;;;;3.17;2.30;;;14.50;89.60;;;;;;5086381;28;20038;-80
2022/04/22 09:14:44;;;;;;;3.88;2.45;;;14.70;89.70;;;;;;5069603;28;20063;-83
2022/04/22 09:17:15;;;;;;;2.88;2.42;;;14.40;87.30;;;;;;5088933;28;20370;-82
2022/04/22 09:19:43;;;;;;;4.60;3.20;;;14.60;90.70;;;;;;5070067;28;20050;-81
2022/04/22 09:22:08;;;;;;;3.33;3.00;;;14.70;89.60;;;;;;5070309;28;20410;-82
2022/04/22 09:24:45;;;;;;;6.38;2.58;;;14.40;89.90;;;;;;5087888;28;20054;-81
2022/04/22 09:27:12;;;;;;;4.45;2.72;;;14.40;90.80;;;;;;5086860;28;20032;-81
2022/04/22 09:29:53;;;;;;;29.08;3.28;;;14.50;90.20;;;;;;5071957;28;20498;-81
2022/04/22 09:32:32;;;;;;;5.30;2.67;;;14.70;91.00;;;;;;5089045;28;20113;-81
2022/04/22 09:35:20;;;;;;;2.92;2.30;;;14.80;90.60;;;;;;5084298;28;20055;-80
2022/04/22 09:43:25;;;;;;;3.47;2.90;;;15.50;90.00;;;;;;5079191;28;20082;-81
2022/04/22 09:45:53;;;;;;;5.40;2.60;;;15.50;86.40;;;;;;5087262;28;20044;-81
2022/04/22 09:48:20;;;;;;;4.32;3.10;;;15.70;90.00;;;;;;5090363;28;20047;-81
2022/04/22 09:50:55;;;;;;;4.20;2.90;;;15.70;88.60;;;;;;5089967;28;20473;-82
2022/04/22 09:53:33;;;;;;;4.15;2.70;;;15.90;89.20;;;;;;5089036;28;20043;-81
2022/04/22 09:56:09;;;;;;;5.05;2.95;;;16.00;89.00;;;;;;5090095;28;20050;-81
2022/04/22 09:58:36;;;;;;;3.38;3.08;;;16.00;86.30;;;;;;5073115;28;20097;-81
2022/04/22 10:01:04;;;;;;;5.05;2.75;;;16.10;88.40;;;;;;5091679;28;20036;-82
2022/04/22 10:03:37;;;;;;;5.80;3.35;;;15.50;82.60;;;;;;5074155;28;20047;-81
2022/04/22 10:06:06;;;;;;;5.63;2.45;;;15.90;84.80;;;;;;5090663;28;20052;-82
2022/04/22 10:08:36;;;;;;;3.95;3.08;;;16.10;88.20;;;;;;5087891;28;20089;-81
2022/04/22 10:11:04;;;;;;;3.60;2.53;;;15.70;84.40;;;;;;5090791;28;20047;-81
2022/04/22 10:13:40;;;;;;;6.53;2.90;;;15.80;88.50;;;;;;5084388;28;20036;-81
2022/04/22 10:16:09;;;;;;;5.85;3.17;;;16.20;85.40;;;;;;5082144;28;20040;-81
2022/04/22 10:18:35;;;;;;;5.05;3.20;;;16.20;86.60;;;;;;5091157;28;20039;-81
2022/04/22 10:21:01;;;;;;;4.22;2.83;;;15.50;83.70;;;;;;5092618;28;20067;-81
2022/04/22 10:23:29;;;;;;;4.40;3.05;;;15.80;87.20;;;;;;5080337;28;20044;-82
2022/04/22 10:25:54;;;;;;;4.60;3.17;;;15.70;85.40;;;;;;5078233;28;20048;-82
2022/04/22 10:28:22;;;;;;;4.45;3.20;;;16.20;88.40;;;;;;5083241;28;20032;-81
2022/04/22 10:30:50;;;;;;;5.82;3.13;;;16.30;84.40;;;;;;5074059;28;20493;-81
2022/04/22 10:33:15;;;;;;;3.75;3.13;;;16.60;83.00;;;;;;5086569;28;20051;-79
2022/04/22 10:35:44;;;;;;;4.78;2.97;;;16.70;81.20;;;;;;5084772;28;20031;-80
2022/04/22 10:38:32;;;;;;;4.38;3.13;;;16.80;81.00;;;;;;5086987;28;20129;-80
2022/04/22 10:41:03;;;;;;;5.25;3.35;;;17.00;83.60;;;;;;5072920;28;20051;-80
2022/04/22 10:43:29;;;;;;;4.28;2.90;;;17.20;80.30;;;;;;5080898;28;20137;-80
2022/04/22 10:48:41;;;;;;;5.60;2.90;;;17.20;83.00;;;;;;5086727;28;20055;-80
2022/04/22 10:51:09;;;;;;;4.43;3.28;;;17.30;84.40;;;;;;5088927;28;20048;-80
2022/04/22 10:53:47;;;;;;;6.03;3.60;;;17.50;81.90;;;;;;5088895;28;20473;-81
2022/04/22 10:56:32;;;;;;;5.30;3.45;;;17.40;80.50;;;;;;5088358;28;20036;-80
2022/04/22 10:59:24;;;;;;;5.32;3.50;;;17.50;79.20;;;;;;5066970;28;20568;-80
2022/04/22 11:01:52;;;;;;;5.13;3.43;;;17.60;81.00;;;;;;5086897;28;20537;-79
2022/04/22 11:04:19;;;;;;;4.13;3.40;;;17.50;77.90;;;;;;5080527;28;20052;-79
2022/04/22 11:06:44;;;;;;;3.97;2.78;;;17.50;80.00;;;;;;5085145;28;20040;-79
2022/04/22 11:09:10;;;;;;;6.93;3.30;;;17.60;81.50;;;;;;5088728;28;20032;-79
2022/04/22 11:11:40;;;;;;;3.30;3.00;;;17.60;80.50;;;;;;5090873;28;20504;-80
2022/04/22 11:14:20;;;;;;;5.20;3.60;;;17.60;79.80;;;;;;5090262;28;20082;-79
2022/04/22 11:16:46;;;;;;;7.25;2.95;;;17.70;81.10;;;;;;5090580;28;20043;-79
2022/04/22 11:19:18;;;;;;;6.07;3.47;;;17.70;78.30;;;;;;5072334;28;20492;-79
2022/04/22 11:21:45;;;;;;;5.45;3.47;;;17.60;76.70;;;;;;5090644;28;20117;-79
2022/04/22 11:24:15;;;;;;;4.13;3.22;;;17.40;77.40;;;;;;5091055;28;20036;-79
2022/04/22 11:26:45;;;;;;;5.75;3.72;;;17.60;78.90;;;;;;5086169;28;20120;-79
2022/04/22 11:29:12;;;;;;;3.90;3.40;;;17.60;77.20;;;;;;5069957;28;20028;-80
2022/04/22 11:31:38;;;;;;;5.55;3.70;;;17.80;77.80;;;;;;5093389;28;20066;-80
2022/04/22 11:34:13;;;;;;;3.45;3.15;;;17.80;75.60;;;;;;5090429;28;20043;-80
2022/04/22 11:36:49;;;;;;;6.22;3.60;;;17.70;76.90;;;;;;5073529;28;20032;-79
2022/04/22 11:39:20;;;;;;;4.43;3.80;;;17.70;75.30;;;;;;5080702;28;20066;-79
2022/04/22 11:42:01;;;;;;;5.40;3.40;;;17.70;78.20;;;;;;5087684;28;20089;-79
2022/04/22 11:44:27;;;;;;;6.20;3.20;;;17.50;73.80;;;;;;5080028;28;20072;-80
2022/04/22 11:46:54;;;;;;;5.32;3.20;;;17.40;75.00;;;;;;5092214;28;20413;-79
2022/04/22 11:49:20;;;;;;;4.90;3.42;;;17.60;74.70;;;;;;5091167;28;20085;-79
2022/04/22 11:51:52;;;;;;;6.15;3.70;;;17.80;79.70;;;;;;5087728;28;20032;-79
2022/04/22 11:54:25;;;;;;;7.32;4.22;;;17.80;73.80;;;;;;5083801;28;20032;-79
2022/04/22 11:56:51;;;;;;;5.85;3.85;;;17.90;76.80;;;;;;5090018;28;20473;-79
2022/04/22 11:59:23;;;;;;;5.22;3.72;;;18.10;77.80;;;;;;5087509;28;20122;-79
2022/04/22 12:10:06;;;;;;;6.63;3.83;;;18.20;74.40;;;;;;5086302;28;20052;-78
2022/04/22 12:12:32;;;;;;;5.03;3.85;;;18.40;76.60;;;;;;5090172;28;20040;-78
2022/04/22 12:15:06;;;;;;;7.15;3.55;;;18.40;75.50;;;;;;5065201;28;20045;-78
2022/04/22 12:17:31;;;;;;;4.13;3.13;;;18.60;76.30;;;;;;5085592;28;20036;-78
2022/04/22 12:19:57;;;;;;;4.75;3.25;;;18.60;76.30;;;;;;5086245;28;20397;-78
2022/04/22 12:22:24;;;;;;;6.43;4.03;;;18.70;75.50;;;;;;5088017;28;20055;-79
2022/04/22 12:25:10;;;;;;;5.50;4.10;;;18.70;73.70;;;;;;5086936;28;20085;-78
2022/04/22 12:27:37;;;;;;;5.07;4.13;;;18.70;74.40;;;;;;5083984;28;20119;-78
2022/04/22 12:30:06;;;;;;;4.35;3.65;;;18.60;72.50;;;;;;5072741;28;20068;-79
2022/04/22 12:32:32;;;;;;;6.47;4.63;;;18.80;74.70;;;;;;5078165;28;20557;-78
2022/04/22 12:35:12;;;;;;;6.80;4.13;;;18.50;71.50;;;;;;5085067;28;20370;-78
2022/04/22 12:37:46;;;;;;;6.30;3.90;;;18.50;73.00;;;;;;5082983;28;20061;-78
2022/04/22 12:40:14;;;;;;;6.30;3.90;;;18.70;75.90;;;;;;5088898;28;20044;-79
2022/04/22 12:42:40;;;;;;;5.25;4.13;;;18.70;71.40;;;;;;5087123;28;20127;-78
2022/04/22 12:53:42;;;;;;;6.72;4.47;;;18.90;73.50;;;;;;5088273;28;20040;-78
2022/04/22 12:56:09;;;;;;;5.28;4.38;;;19.10;74.40;;;;;;5087585;28;20032;-78
2022/04/22 12:58:56;;;;;;;5.05;4.55;;;19.20;72.80;;;;;;5083397;28;20043;-79
2022/04/22 13:01:36;;;;;;;8.30;4.95;;;19.40;73.40;;;;;;5080159;28;20048;-79
2022/04/22 13:04:03;;;;;;;5.60;5.00;;;19.30;72.70;;;;;;5086157;28;20040;-78
2022/04/22 13:06:55;;;;;;;7.75;5.03;;;19.30;73.50;;;;;;5089513;28;20051;-78
2022/04/22 13:09:22;;;;;;;5.50;4.45;;;19.40;73.80;;;;;;5075883;28;20040;-79
2022/04/22 13:11:49;;;;;;;8.05;5.68;;;19.40;74.00;;;;;;5079931;28;20047;-78
2022/04/22 13:14:15;;;;;;;6.72;5.50;;;19.40;73.20;;;;;;5083826;28;20051;-78
2022/04/22 13:16:41;;;;;;;5.85;5.25;;;19.20;73.00;;;;;;5078566;28;20485;-78
2022/04/22 13:19:06;;;;;;;5.53;3.97;;;19.10;72.70;;;;;;5088666;28;20040;-78
2022/04/22 13:21:32;;;;;;;8.02;5.20;;;19.30;73.30;;;;;;5088824;28;20196;-79
2022/04/22 13:23:57;;;;;;;10.77;5.70;;;19.40;72.70;;;;;;5071818;28;20063;-79
2022/04/22 13:26:24;;;;;;;8.38;6.00;;;19.40;72.10;;;;;;5093088;28;20044;-78
2022/04/22 13:28:50;;;;;;;8.52;5.07;;;19.50;71.10;;;;;;5088295;28;20390;-76
2022/04/22 13:31:16;;;;;;;5.80;5.20;;;19.60;73.30;;;;;;5078769;28;20040;-77
2022/04/22 13:33:42;;;;;;;6.03;5.03;;;19.60;71.70;;;;;;5084169;28;20056;-76
2022/04/22 13:36:10;;;;;;;6.30;5.00;;;19.20;72.20;;;;;;5091464;28;20051;-76
2022/04/22 13:38:37;;;;;;;7.00;5.80;;;19.20;71.60;;;;;;5084449;28;20053;-76
2022/04/22 13:41:06;;;;;;;6.43;5.40;;;19.10;73.30;;;;;;5074006;28;20050;-77
2022/04/22 13:43:33;;;;;;;7.53;5.68;;;19.10;73.80;;;;;;5092667;28;20048;-76
2022/04/22 13:54:12;;;;;;;6.82;5.10;;;19.80;70.40;;;;;;5081471;28;20035;-76
2022/04/22 13:56:38;;;;;;;5.95;5.32;;;19.30;73.00;;;;;;5084640;28;20473;-76
2022/04/22 13:59:03;;;;;;;7.00;5.47;;;19.50;72.50;;;;;;5077814;28;20521;-76
2022/04/22 14:01:29;;;;;;;7.97;5.03;;;19.40;73.00;;;;;;5086131;28;20046;-76
2022/04/22 14:03:54;;;;;;;8.07;5.20;;;19.40;73.00;;;;;;5068502;28;20074;-76
2022/04/22 14:06:20;;;;;;;12.70;5.40;;;19.30;72.40;;;;;;5089355;28;20044;-76
2022/04/22 14:08:46;;;;;;;6.93;5.53;;;19.30;74.50;;;;;;5090702;28;20085;-76
2022/04/22 14:11:11;;;;;;;7.22;5.20;;;19.30;71.80;;;;;;5092067;28;20040;-76